sensor_id;sensor_type;location;lat;lon;timestamp;P1;P2;P0
14880;PMS7003;7533;51.278;12.588;2024-01-15T00:03:39;4.75;4.00;2.00
14880;PMS7003;7533;51.278;12.588;2024-01-15T00:08:44;5.00;5.00;2.00
14880;PMS7003;7533;51.278;12.588;2024-01-15T00:13:48;4.25;4.25;1.75
14880;PMS7003;7533;51.278;12.588;2024-01-15T00:18:51;5.50;5.50;3.00
14880;PMS7003;7533;51.278;12.588;2024-01-15T00:23:53;6.00;4.75;3.00
14880;PMS7003;7533;51.278;12.588;2024-01-15T00:28:58;4.75;4.25;2.75
14880;PMS7003;7533;51.278;12.588;2024-01-15T00:34:01;5.25;5.00;3.00
14880;PMS7003;7533;51.278;12.588;2024-01-15T00:39:04;5.00;5.00;2.00
14880;PMS7003;7533;51.278;12.588;2024-01-15T00:44:08;6.25;5.25;2.50
14880;PMS7003;7533;51.278;12.588;2024-01-15T00:49:11;3.75;3.75;1.50
14880;PMS7003;7533;51.278;12.588;2024-01-15T00:54:15;4.50;3.75;2.25
14880;PMS7003;7533;51.278;12.588;2024-01-15T00:59:20;5.25;5.25;4.25
14880;PMS7003;7533;51.278;12.588;2024-01-15T01:04:23;5.50;5.50;2.00
14880;PMS7003;7533;51.278;12.588;2024-01-15T01:09:26;6.00;5.00;2.00
14880;PMS7003;7533;51.278;12.588;2024-01-15T01:14:33;4.50;4.50;3.00
14880;PMS7003;7533;51.278;12.588;2024-01-15T01:19:35;4.50;4.50;2.75
14880;PMS7003;7533;51.278;12.588;2024-01-15T01:24:39;5.75;5.25;3.00
14880;PMS7003;7533;51.278;12.588;2024-01-15T01:29:43;4.25;4.25;2.25
14880;PMS7003;7533;51.278;12.588;2024-01-15T01:34:46;4.75;4.75;3.00
14880;PMS7003;7533;51.278;12.588;2024-01-15T01:39:49;7.00;6.00;2.75
14880;PMS7003;7533;51.278;12.588;2024-01-15T01:44:53;7.00;5.50;3.00
14880;PMS7003;7533;51.278;12.588;2024-01-15T01:49:56;5.50;5.50;2.75
14880;PMS7003;7533;51.278;12.588;2024-01-15T01:54:59;7.00;7.00;3.00
14880;PMS7003;7533;51.278;12.588;2024-01-15T02:00:06;5.25;5.00;3.00
14880;PMS7003;7533;51.278;12.588;2024-01-15T02:05:14;7.00;5.50;2.50
14880;PMS7003;7533;51.278;12.588;2024-01-15T02:10:21;6.00;5.75;3.00
14880;PMS7003;7533;51.278;12.588;2024-01-15T02:15:25;8.50;6.75;4.00
14880;PMS7003;7533;51.278;12.588;2024-01-15T02:20:28;6.25;6.25;3.00
14880;PMS7003;7533;51.278;12.588;2024-01-15T02:25:33;5.50;5.50;2.25
14880;PMS7003;7533;51.278;12.588;2024-01-15T02:30:37;6.00;5.25;1.75
14880;PMS7003;7533;51.278;12.588;2024-01-15T02:35:41;5.50;5.50;3.50
14880;PMS7003;7533;51.278;12.588;2024-01-15T02:40:46;7.50;6.50;3.25
14880;PMS7003;7533;51.278;12.588;2024-01-15T02:45:49;6.00;5.00;3.00
14880;PMS7003;7533;51.278;12.588;2024-01-15T02:50:52;5.75;5.50;3.50
14880;PMS7003;7533;51.278;12.588;2024-01-15T02:55:56;6.25;5.75;4.00
14880;PMS7003;7533;51.278;12.588;2024-01-15T03:01:00;6.50;6.50;4.00
14880;PMS7003;7533;51.278;12.588;2024-01-15T03:06:03;5.00;4.00;2.50
14880;PMS7003;7533;51.278;12.588;2024-01-15T03:11:08;7.00;6.50;3.00
14880;PMS7003;7533;51.278;12.588;2024-01-15T03:16:11;6.00;5.25;3.25
14880;PMS7003;7533;51.278;12.588;2024-01-15T03:21:13;6.50;6.00;3.00
14880;PMS7003;7533;51.278;12.588;2024-01-15T03:26:18;5.50;5.00;3.00
14880;PMS7003;7533;51.278;12.588;2024-01-15T03:31:21;7.00;5.50;3.00
14880;PMS7003;7533;51.278;12.588;2024-01-15T03:36:24;6.25;6.25;3.25
14880;PMS7003;7533;51.278;12.588;2024-01-15T03:41:28;9.00;6.50;3.75
14880;PMS7003;7533;51.278;12.588;2024-01-15T03:46:31;5.50;5.00;3.00
14880;PMS7003;7533;51.278;12.588;2024-01-15T03:51:34;5.00;4.75;2.25
14880;PMS7003;7533;51.278;12.588;2024-01-15T03:56:38;6.50;4.50;3.00
14880;PMS7003;7533;51.278;12.588;2024-01-15T04:01:41;5.00;5.00;3.00
14880;PMS7003;7533;51.278;12.588;2024-01-15T04:06:50;7.50;7.50;4.00
14880;PMS7003;7533;51.278;12.588;2024-01-15T04:11:55;6.50;6.50;3.25
14880;PMS7003;7533;51.278;12.588;2024-01-15T04:16:58;7.25;5.25;3.25
14880;PMS7003;7533;51.278;12.588;2024-01-15T04:22:00;6.50;5.00;3.00
14880;PMS7003;7533;51.278;12.588;2024-01-15T04:27:05;5.25;4.75;2.75
14880;PMS7003;7533;51.278;12.588;2024-01-15T04:32:08;6.25;5.50;3.00
14880;PMS7003;7533;51.278;12.588;2024-01-15T04:37:11;6.75;5.00;2.25
14880;PMS7003;7533;51.278;12.588;2024-01-15T04:42:17;5.75;5.75;3.00
14880;PMS7003;7533;51.278;12.588;2024-01-15T04:47:20;6.00;5.00;3.50
14880;PMS7003;7533;51.278;12.588;2024-01-15T04:52:23;6.25;5.50;3.00
14880;PMS7003;7533;51.278;12.588;2024-01-15T04:57:27;5.75;5.25;2.75
14880;PMS7003;7533;51.278;12.588;2024-01-15T05:02:30;7.00;5.00;2.50
14880;PMS7003;7533;51.278;12.588;2024-01-15T05:07:33;5.00;5.00;3.00
14880;PMS7003;7533;51.278;12.588;2024-01-15T05:12:37;3.00;3.00;1.75
14880;PMS7003;7533;51.278;12.588;2024-01-15T05:17:40;4.00;4.00;2.00
14880;PMS7003;7533;51.278;12.588;2024-01-15T05:22:43;6.75;5.00;2.00
14880;PMS7003;7533;51.278;12.588;2024-01-15T05:27:47;5.25;4.50;2.50
14880;PMS7003;7533;51.278;12.588;2024-01-15T05:32:50;6.00;6.00;3.00
14880;PMS7003;7533;51.278;12.588;2024-01-15T05:37:53;3.00;3.00;2.25
14880;PMS7003;7533;51.278;12.588;2024-01-15T05:42:57;4.00;4.00;2.25
14880;PMS7003;7533;51.278;12.588;2024-01-15T05:48:00;5.00;4.00;1.50
14880;PMS7003;7533;51.278;12.588;2024-01-15T05:53:03;6.75;5.75;2.00
14880;PMS7003;7533;51.278;12.588;2024-01-15T05:58:08;4.25;3.50;2.50
14880;PMS7003;7533;51.278;12.588;2024-01-15T06:03:11;4.00;4.00;2.50
14880;PMS7003;7533;51.278;12.588;2024-01-15T06:08:14;4.50;4.50;2.00
14880;PMS7003;7533;51.278;12.588;2024-01-15T06:13:18;4.25;4.25;2.00
14880;PMS7003;7533;51.278;12.588;2024-01-15T06:18:21;5.75;4.25;2.00
14880;PMS7003;7533;51.278;12.588;2024-01-15T06:23:24;4.50;3.75;2.25
14880;PMS7003;7533;51.278;12.588;2024-01-15T06:28:28;3.75;3.75;2.25
14880;PMS7003;7533;51.278;12.588;2024-01-15T06:33:31;4.25;4.00;2.00
14880;PMS7003;7533;51.278;12.588;2024-01-15T06:38:34;4.25;4.25;2.50
14880;PMS7003;7533;51.278;12.588;2024-01-15T06:43:38;4.75;4.00;2.50
14880;PMS7003;7533;51.278;12.588;2024-01-15T06:48:41;3.00;3.00;2.00
14880;PMS7003;7533;51.278;12.588;2024-01-15T06:53:44;2.75;2.75;1.00
14880;PMS7003;7533;51.278;12.588;2024-01-15T06:58:48;4.50;4.50;2.25
14880;PMS7003;7533;51.278;12.588;2024-01-15T07:03:52;4.25;3.25;2.00
14880;PMS7003;7533;51.278;12.588;2024-01-15T07:08:55;3.00;3.00;2.00
14880;PMS7003;7533;51.278;12.588;2024-01-15T07:13:59;4.00;4.00;2.00
14880;PMS7003;7533;51.278;12.588;2024-01-15T07:19:02;3.50;3.50;2.00
14880;PMS7003;7533;51.278;12.588;2024-01-15T07:24:05;5.00;4.00;2.00
14880;PMS7003;7533;51.278;12.588;2024-01-15T07:29:09;5.50;4.75;2.00
14880;PMS7003;7533;51.278;12.588;2024-01-15T07:34:12;3.75;3.75;2.00
14880;PMS7003;7533;51.278;12.588;2024-01-15T07:39:16;4.00;3.00;1.75
14880;PMS7003;7533;51.278;12.588;2024-01-15T07:44:21;4.75;3.75;2.50
14880;PMS7003;7533;51.278;12.588;2024-01-15T07:49:24;2.50;2.50;1.25
14880;PMS7003;7533;51.278;12.588;2024-01-15T07:54:27;5.75;4.00;2.00
14880;PMS7003;7533;51.278;12.588;2024-01-15T07:59:31;4.25;4.25;2.00
14880;PMS7003;7533;51.278;12.588;2024-01-15T08:04:34;6.00;5.50;3.50
14880;PMS7003;7533;51.278;12.588;2024-01-15T08:09:39;9.75;8.75;5.25
14880;PMS7003;7533;51.278;12.588;2024-01-15T08:14:43;8.50;7.50;3.50
14880;PMS7003;7533;51.278;12.588;2024-01-15T08:19:46;9.00;9.00;4.00
14880;PMS7003;7533;51.278;12.588;2024-01-15T08:24:49;5.75;5.75;3.00
14880;PMS7003;7533;51.278;12.588;2024-01-15T08:29:54;5.00;3.75;3.00
14880;PMS7003;7533;51.278;12.588;2024-01-15T08:34:57;4.50;4.50;3.50
14880;PMS7003;7533;51.278;12.588;2024-01-15T08:40:00;2.25;2.00;2.00
14880;PMS7003;7533;51.278;12.588;2024-01-15T08:45:06;4.75;4.75;2.25
14880;PMS7003;7533;51.278;12.588;2024-01-15T08:50:09;6.00;3.50;2.00
14880;PMS7003;7533;51.278;12.588;2024-01-15T08:55:12;4.50;4.50;2.00
14880;PMS7003;7533;51.278;12.588;2024-01-15T09:00:17;4.75;3.00;1.75
14880;PMS7003;7533;51.278;12.588;2024-01-15T09:05:20;3.25;3.25;1.50
14880;PMS7003;7533;51.278;12.588;2024-01-15T09:10:23;3.00;3.00;1.25
14880;PMS7003;7533;51.278;12.588;2024-01-15T09:15:27;4.00;4.00;2.50
14880;PMS7003;7533;51.278;12.588;2024-01-15T09:20:30;4.50;3.75;2.00
14880;PMS7003;7533;51.278;12.588;2024-01-15T09:25:33;3.00;3.00;1.25
14880;PMS7003;7533;51.278;12.588;2024-01-15T09:30:38;4.25;4.00;2.00
14880;PMS7003;7533;51.278;12.588;2024-01-15T09:35:40;2.50;2.50;1.25
14880;PMS7003;7533;51.278;12.588;2024-01-15T09:40:43;4.00;4.00;2.00
14880;PMS7003;7533;51.278;12.588;2024-01-15T09:45:50;4.00;4.00;2.00
14880;PMS7003;7533;51.278;12.588;2024-01-15T09:50:54;5.25;4.00;1.50
14880;PMS7003;7533;51.278;12.588;2024-01-15T09:56:00;3.67;3.33;1.33
14880;PMS7003;7533;51.278;12.588;2024-01-15T10:01:04;3.50;3.50;2.50
14880;PMS7003;7533;51.278;12.588;2024-01-15T10:06:09;4.25;4.00;1.75
14880;PMS7003;7533;51.278;12.588;2024-01-15T10:11:18;4.50;3.00;2.00
14880;PMS7003;7533;51.278;12.588;2024-01-15T10:16:22;3.50;3.50;2.00
14880;PMS7003;7533;51.278;12.588;2024-01-15T10:21:25;3.50;2.25;1.00
14880;PMS7003;7533;51.278;12.588;2024-01-15T10:26:29;4.00;3.50;2.00
14880;PMS7003;7533;51.278;12.588;2024-01-15T10:31:33;3.25;2.25;1.00
14880;PMS7003;7533;51.278;12.588;2024-01-15T10:36:38;4.50;4.00;1.25
14880;PMS7003;7533;51.278;12.588;2024-01-15T10:41:42;5.50;3.50;1.00
14880;PMS7003;7533;51.278;12.588;2024-01-15T10:46:47;4.50;3.50;1.75
14880;PMS7003;7533;51.278;12.588;2024-01-15T10:51:50;4.00;4.00;2.00
14880;PMS7003;7533;51.278;12.588;2024-01-15T10:56:54;2.25;2.25;1.75
14880;PMS7003;7533;51.278;12.588;2024-01-15T11:02:00;4.00;3.25;2.00
14880;PMS7003;7533;51.278;12.588;2024-01-15T11:07:03;4.50;2.00;1.00
14880;PMS7003;7533;51.278;12.588;2024-01-15T11:12:09;2.00;2.00;1.00
14880;PMS7003;7533;51.278;12.588;2024-01-15T11:17:15;2.50;2.00;1.00
14880;PMS7003;7533;51.278;12.588;2024-01-15T11:27:51;3.25;3.00;1.00
14880;PMS7003;7533;51.278;12.588;2024-01-15T11:32:57;3.00;3.00;1.00
14880;PMS7003;7533;51.278;12.588;2024-01-15T11:38:00;4.00;2.50;1.00
14880;PMS7003;7533;51.278;12.588;2024-01-15T11:43:04;3.50;3.50;2.00
14880;PMS7003;7533;51.278;12.588;2024-01-15T11:48:15;2.75;2.75;1.75
14880;PMS7003;7533;51.278;12.588;2024-01-15T11:53:22;3.00;3.00;1.00
14880;PMS7003;7533;51.278;12.588;2024-01-15T11:58:31;3.00;3.00;1.00
14880;PMS7003;7533;51.278;12.588;2024-01-15T12:03:36;2.50;2.00;0.25
14880;PMS7003;7533;51.278;12.588;2024-01-15T12:08:39;3.75;2.25;1.00
14880;PMS7003;7533;51.278;12.588;2024-01-15T12:13:42;1.50;1.50;0.75
14880;PMS7003;7533;51.278;12.588;2024-01-15T12:18:46;2.00;2.00;0.00
14880;PMS7003;7533;51.278;12.588;2024-01-15T12:23:50;3.00;3.00;0.50
14880;PMS7003;7533;51.278;12.588;2024-01-15T12:28:54;3.00;3.00;1.50
14880;PMS7003;7533;51.278;12.588;2024-01-15T12:34:01;3.75;3.00;1.00
14880;PMS7003;7533;51.278;12.588;2024-01-15T12:39:05;3.50;3.50;1.25
14880;PMS7003;7533;51.278;12.588;2024-01-15T12:44:09;3.00;3.00;1.00
14880;PMS7003;7533;51.278;12.588;2024-01-15T12:49:14;3.00;3.00;1.75
14880;PMS7003;7533;51.278;12.588;2024-01-15T12:54:17;4.00;2.75;1.00
14880;PMS7003;7533;51.278;12.588;2024-01-15T12:59:20;3.75;2.00;1.00
14880;PMS7003;7533;51.278;12.588;2024-01-15T13:04:24;2.00;2.00;1.00
14880;PMS7003;7533;51.278;12.588;2024-01-15T13:09:28;1.00;1.00;0.25
14880;PMS7003;7533;51.278;12.588;2024-01-15T13:14:31;2.75;2.75;1.75
14880;PMS7003;7533;51.278;12.588;2024-01-15T13:19:35;6.75;6.00;4.00
14880;PMS7003;7533;51.278;12.588;2024-01-15T13:24:38;7.00;5.75;4.00
14880;PMS7003;7533;51.278;12.588;2024-01-15T13:29:41;8.00;7.25;4.25
14880;PMS7003;7533;51.278;12.588;2024-01-15T13:34:48;11.00;7.75;4.50
14880;PMS7003;7533;51.278;12.588;2024-01-15T13:39:52;59.40;44.00;25.40
14880;PMS7003;7533;51.278;12.588;2024-01-15T13:44:55;114.40;92.20;49.20
14880;PMS7003;7533;51.278;12.588;2024-01-15T13:50:00;172.40;142.20;69.80
14880;PMS7003;7533;51.278;12.588;2024-01-15T13:55:03;215.60;178.00;83.20
14880;PMS7003;7533;51.278;12.588;2024-01-15T14:00:08;191.60;157.60;75.00
14880;PMS7003;7533;51.278;12.588;2024-01-15T14:05:15;154.60;129.60;62.40
14880;PMS7003;7533;51.278;12.588;2024-01-15T14:10:18;154.20;123.60;58.20
14880;PMS7003;7533;51.278;12.588;2024-01-15T14:15:21;126.00;103.00;52.40
14880;PMS7003;7533;51.278;12.588;2024-01-15T14:20:26;127.40;100.40;47.60
14880;PMS7003;7533;51.278;12.588;2024-01-15T14:25:29;125.00;97.40;44.80
14880;PMS7003;7533;51.278;12.588;2024-01-15T14:30:32;108.80;89.20;43.00
14880;PMS7003;7533;51.278;12.588;2024-01-15T14:35:36;110.80;88.20;42.80
14880;PMS7003;7533;51.278;12.588;2024-01-15T14:40:40;99.40;85.40;40.20
14880;PMS7003;7533;51.278;12.588;2024-01-15T14:45:43;97.40;82.80;39.00
14880;PMS7003;7533;51.278;12.588;2024-01-15T14:50:49;98.20;81.60;39.80
14880;PMS7003;7533;51.278;12.588;2024-01-15T14:55:52;85.60;72.80;36.20
14880;PMS7003;7533;51.278;12.588;2024-01-15T15:00:55;88.20;72.40;37.00
14880;PMS7003;7533;51.278;12.588;2024-01-15T15:06:00;89.40;72.00;37.00
14880;PMS7003;7533;51.278;12.588;2024-01-15T15:11:03;87.20;73.20;35.60
14880;PMS7003;7533;51.278;12.588;2024-01-15T15:16:06;92.20;75.80;37.20
14880;PMS7003;7533;51.278;12.588;2024-01-15T15:21:11;75.60;67.00;34.80
14880;PMS7003;7533;51.278;12.588;2024-01-15T15:26:14;82.00;66.40;35.00
14880;PMS7003;7533;51.278;12.588;2024-01-15T15:31:17;84.60;69.00;33.20
14880;PMS7003;7533;51.278;12.588;2024-01-15T15:36:22;79.20;66.60;33.20
14880;PMS7003;7533;51.278;12.588;2024-01-15T15:41:25;80.60;65.20;32.00
14880;PMS7003;7533;51.278;12.588;2024-01-15T15:46:29;75.20;62.80;33.60
14880;PMS7003;7533;51.278;12.588;2024-01-15T15:51:34;76.00;60.80;32.60
14880;PMS7003;7533;51.278;12.588;2024-01-15T15:56:38;75.00;61.20;31.20
14880;PMS7003;7533;51.278;12.588;2024-01-15T16:01:41;70.20;56.00;31.00
14880;PMS7003;7533;51.278;12.588;2024-01-15T16:06:45;70.40;57.60;31.00
14880;PMS7003;7533;51.278;12.588;2024-01-15T16:11:49;71.80;55.40;31.00
14880;PMS7003;7533;51.278;12.588;2024-01-15T16:16:52;71.20;53.20;29.80
14880;PMS7003;7533;51.278;12.588;2024-01-15T16:22:20;70.60;54.40;29.40
14880;PMS7003;7533;51.278;12.588;2024-01-15T16:27:43;69.20;51.00;30.00
14880;PMS7003;7533;51.278;12.588;2024-01-15T16:32:46;69.40;51.60;29.80
14880;PMS7003;7533;51.278;12.588;2024-01-15T16:37:51;67.20;49.40;28.80
14880;PMS7003;7533;51.278;12.588;2024-01-15T16:42:54;65.80;49.40;28.40
14880;PMS7003;7533;51.278;12.588;2024-01-15T16:47:57;66.80;50.00;29.00
14880;PMS7003;7533;51.278;12.588;2024-01-15T16:53:02;65.60;49.80;26.80
14880;PMS7003;7533;51.278;12.588;2024-01-15T16:58:05;63.60;48.00;27.00
14880;PMS7003;7533;51.278;12.588;2024-01-15T17:03:08;63.80;47.80;27.00
14880;PMS7003;7533;51.278;12.588;2024-01-15T17:08:12;69.80;49.80;27.60
14880;PMS7003;7533;51.278;12.588;2024-01-15T17:13:15;66.20;48.20;28.80
14880;PMS7003;7533;51.278;12.588;2024-01-15T17:18:18;69.80;52.00;29.00
14880;PMS7003;7533;51.278;12.588;2024-01-15T17:23:23;68.80;51.00;28.80
14880;PMS7003;7533;51.278;12.588;2024-01-15T17:28:26;66.20;48.40;29.40
14880;PMS7003;7533;51.278;12.588;2024-01-15T17:33:29;63.80;48.80;28.00
14880;PMS7003;7533;51.278;12.588;2024-01-15T17:38:33;65.80;47.20;27.80
14880;PMS7003;7533;51.278;12.588;2024-01-15T17:43:36;66.80;47.20;27.00
14880;PMS7003;7533;51.278;12.588;2024-01-15T17:48:39;62.00;45.20;26.00
14880;PMS7003;7533;51.278;12.588;2024-01-15T17:53:44;60.60;45.20;25.80
14880;PMS7003;7533;51.278;12.588;2024-01-15T17:58:48;62.20;45.60;26.00
14880;PMS7003;7533;51.278;12.588;2024-01-15T18:03:51;57.80;43.60;25.40
14880;PMS7003;7533;51.278;12.588;2024-01-15T18:08:56;59.00;44.40;25.00
14880;PMS7003;7533;51.278;12.588;2024-01-15T18:13:59;54.20;41.60;24.20
14880;PMS7003;7533;51.278;12.588;2024-01-15T18:19:02;52.40;41.00;23.80
14880;PMS7003;7533;51.278;12.588;2024-01-15T18:24:07;59.20;42.00;24.20
14880;PMS7003;7533;51.278;12.588;2024-01-15T18:29:10;55.00;41.60;22.80
14880;PMS7003;7533;51.278;12.588;2024-01-15T18:34:13;49.20;39.40;21.80
14880;PMS7003;7533;51.278;12.588;2024-01-15T18:39:18;46.00;36.60;20.60
14880;PMS7003;7533;51.278;12.588;2024-01-15T18:44:21;46.80;37.40;22.00
14880;PMS7003;7533;51.278;12.588;2024-01-15T18:49:24;49.00;37.80;21.40
14880;PMS7003;7533;51.278;12.588;2024-01-15T18:54:29;46.60;36.80;20.00
14880;PMS7003;7533;51.278;12.588;2024-01-15T18:59:32;42.00;31.60;18.20
14880;PMS7003;7533;51.278;12.588;2024-01-15T19:04:37;42.20;32.80;19.00
14880;PMS7003;7533;51.278;12.588;2024-01-15T19:09:42;43.40;32.80;18.80
14880;PMS7003;7533;51.278;12.588;2024-01-15T19:14:45;41.20;33.20;19.00
14880;PMS7003;7533;51.278;12.588;2024-01-15T19:19:49;38.40;30.40;17.40
14880;PMS7003;7533;51.278;12.588;2024-01-15T19:24:54;35.00;30.40;17.60
14880;PMS7003;7533;51.278;12.588;2024-01-15T19:29:56;37.20;30.20;17.40
14880;PMS7003;7533;51.278;12.588;2024-01-15T19:34:59;35.60;29.40;16.20
14880;PMS7003;7533;51.278;12.588;2024-01-15T19:40:05;32.60;27.40;14.80
14880;PMS7003;7533;51.278;12.588;2024-01-15T19:45:09;29.40;25.20;14.20
14880;PMS7003;7533;51.278;12.588;2024-01-15T19:50:12;26.80;26.80;14.60
14880;PMS7003;7533;51.278;12.588;2024-01-15T19:55:16;29.80;23.80;14.60
14880;PMS7003;7533;51.278;12.588;2024-01-15T20:00:19;28.80;23.00;12.80
14880;PMS7003;7533;51.278;12.588;2024-01-15T20:05:22;30.80;24.40;13.00
14880;PMS7003;7533;51.278;12.588;2024-01-15T20:10:27;27.00;23.00;13.00
14880;PMS7003;7533;51.278;12.588;2024-01-15T20:15:30;24.75;22.25;12.25
14880;PMS7003;7533;51.278;12.588;2024-01-15T20:20:36;22.25;20.25;12.25
14880;PMS7003;7533;51.278;12.588;2024-01-15T20:25:44;22.00;20.50;11.25
14880;PMS7003;7533;51.278;12.588;2024-01-15T20:30:48;19.50;17.50;10.25
14880;PMS7003;7533;51.278;12.588;2024-01-15T20:35:51;20.00;17.00;9.50
14880;PMS7003;7533;51.278;12.588;2024-01-15T20:40:56;21.25;19.75;9.00
14880;PMS7003;7533;51.278;12.588;2024-01-15T20:45:59;18.25;17.00;9.50
14880;PMS7003;7533;51.278;12.588;2024-01-15T20:51:02;24.25;18.00;9.75
14880;PMS7003;7533;51.278;12.588;2024-01-15T20:56:07;19.50;17.75;10.00
14880;PMS7003;7533;51.278;12.588;2024-01-15T21:01:11;22.00;19.25;9.00
14880;PMS7003;7533;51.278;12.588;2024-01-15T21:06:15;21.50;17.75;9.25
14880;PMS7003;7533;51.278;12.588;2024-01-15T21:11:19;21.25;15.50;8.25
14880;PMS7003;7533;51.278;12.588;2024-01-15T21:16:22;21.50;16.75;10.00
14880;PMS7003;7533;51.278;12.588;2024-01-15T21:21:25;16.00;14.50;8.00
14880;PMS7003;7533;51.278;12.588;2024-01-15T21:26:29;14.75;12.75;7.00
14880;PMS7003;7533;51.278;12.588;2024-01-15T21:31:36;17.25;15.75;7.50
14880;PMS7003;7533;51.278;12.588;2024-01-15T21:36:39;17.00;13.50;7.25
14880;PMS7003;7533;51.278;12.588;2024-01-15T21:41:43;14.25;12.25;6.00
14880;PMS7003;7533;51.278;12.588;2024-01-15T21:46:46;14.00;12.25;6.75
14880;PMS7003;7533;51.278;12.588;2024-01-15T21:51:49;10.75;9.75;5.50
14880;PMS7003;7533;51.278;12.588;2024-01-15T21:56:54;19.75;15.25;6.00
14880;PMS7003;7533;51.278;12.588;2024-01-15T22:01:57;14.75;12.25;6.50
14880;PMS7003;7533;51.278;12.588;2024-01-15T22:07:05;10.75;8.25;5.00
14880;PMS7003;7533;51.278;12.588;2024-01-15T22:12:10;11.50;10.00;5.50
14880;PMS7003;7533;51.278;12.588;2024-01-15T22:17:13;12.50;11.50;5.00
14880;PMS7003;7533;51.278;12.588;2024-01-15T22:22:18;11.67;10.00;6.33
14880;PMS7003;7533;51.278;12.588;2024-01-15T22:27:22;12.25;10.25;5.25
14880;PMS7003;7533;51.278;12.588;2024-01-15T22:32:25;11.00;8.50;5.50
14880;PMS7003;7533;51.278;12.588;2024-01-15T22:37:32;12.50;11.00;6.00
14880;PMS7003;7533;51.278;12.588;2024-01-15T22:42:37;12.00;8.50;5.00
14880;PMS7003;7533;51.278;12.588;2024-01-15T22:47:40;9.00;8.00;4.00
14880;PMS7003;7533;51.278;12.588;2024-01-15T22:52:43;12.50;10.00;5.00
14880;PMS7003;7533;51.278;12.588;2024-01-15T22:57:47;13.00;10.50;4.25
14880;PMS7003;7533;51.278;12.588;2024-01-15T23:02:50;12.00;8.75;5.00
14880;PMS7003;7533;51.278;12.588;2024-01-15T23:07:58;9.50;8.75;5.00
14880;PMS7003;7533;51.278;12.588;2024-01-15T23:13:02;8.25;7.00;4.00
14880;PMS7003;7533;51.278;12.588;2024-01-15T23:18:06;11.00;9.75;4.25
14880;PMS7003;7533;51.278;12.588;2024-01-15T23:23:09;7.25;6.00;4.00
14880;PMS7003;7533;51.278;12.588;2024-01-15T23:28:13;9.75;6.75;3.75
14880;PMS7003;7533;51.278;12.588;2024-01-15T23:33:16;6.25;6.25;4.00
14880;PMS7003;7533;51.278;12.588;2024-01-15T23:38:19;8.50;7.50;3.50
14880;PMS7003;7533;51.278;12.588;2024-01-15T23:43:24;9.00;8.00;4.00
14880;PMS7003;7533;51.278;12.588;2024-01-15T23:48:27;8.00;7.50;3.00
14880;PMS7003;7533;51.278;12.588;2024-01-15T23:53:30;7.25;6.75;3.00
14880;PMS7003;7533;51.278;12.588;2024-01-15T23:58:35;11.25;9.00;5.00
